sensor_id;sensor_type;location;lat;lon;timestamp;P1;durP1;ratioP1;P2;durP2;ratioP2
20846;SDS011;10584;50.854;12.902;2023-03-04T00:03:26;36.77;;;12.60;;
20846;SDS011;10584;50.854;12.902;2023-03-04T00:08:48;29.63;;;10.93;;
20846;SDS011;10584;50.854;12.902;2023-03-04T00:14:09;32.20;;;12.30;;
20846;SDS011;10584;50.854;12.902;2023-03-04T00:19:31;27.47;;;10.67;;
20846;SDS011;10584;50.854;12.902;2023-03-04T00:24:54;31.67;;;11.73;;
20846;SDS011;10584;50.854;12.902;2023-03-04T00:30:15;33.13;;;11.67;;
20846;SDS011;10584;50.854;12.902;2023-03-04T00:35:37;33.67;;;12.40;;
20846;SDS011;10584;50.854;12.902;2023-03-04T00:40:59;20.97;;;7.37;;
20846;SDS011;10584;50.854;12.902;2023-03-04T00:46:20;29.13;;;11.23;;
20846;SDS011;10584;50.854;12.902;2023-03-04T00:51:44;27.40;;;10.83;;
20846;SDS011;10584;50.854;12.902;2023-03-04T00:57:05;34.03;;;11.67;;
20846;SDS011;10584;50.854;12.902;2023-03-04T01:02:27;32.03;;;10.83;;
20846;SDS011;10584;50.854;12.902;2023-03-04T01:07:49;33.77;;;12.60;;
20846;SDS011;10584;50.854;12.902;2023-03-04T01:13:10;26.10;;;10.13;;
20846;SDS011;10584;50.854;12.902;2023-03-04T01:18:32;28.47;;;10.57;;
20846;SDS011;10584;50.854;12.902;2023-03-04T01:23:54;28.93;;;11.70;;
20846;SDS011;10584;50.854;12.902;2023-03-04T01:29:16;34.23;;;11.87;;
20846;SDS011;10584;50.854;12.902;2023-03-04T01:34:38;27.93;;;11.17;;
20846;SDS011;10584;50.854;12.902;2023-03-04T01:40:00;33.07;;;13.03;;
20846;SDS011;10584;50.854;12.902;2023-03-04T01:45:22;30.03;;;10.73;;
20846;SDS011;10584;50.854;12.902;2023-03-04T01:50:43;24.90;;;9.27;;
20846;SDS011;10584;50.854;12.902;2023-03-04T01:56:25;33.20;;;12.20;;
20846;SDS011;10584;50.854;12.902;2023-03-04T02:01:57;28.20;;;11.10;;
20846;SDS011;10584;50.854;12.902;2023-03-04T02:07:20;29.90;;;12.30;;
20846;SDS011;10584;50.854;12.902;2023-03-04T02:12:42;29.53;;;12.17;;
20846;SDS011;10584;50.854;12.902;2023-03-04T02:18:25;30.17;;;11.97;;
20846;SDS011;10584;50.854;12.902;2023-03-04T02:29:29;31.90;;;12.77;;
20846;SDS011;10584;50.854;12.902;2023-03-04T02:34:54;30.93;;;13.17;;
20846;SDS011;10584;50.854;12.902;2023-03-04T02:40:28;30.53;;;11.47;;
20846;SDS011;10584;50.854;12.902;2023-03-04T02:45:51;31.47;;;12.53;;
20846;SDS011;10584;50.854;12.902;2023-03-04T02:51:13;30.70;;;10.97;;
20846;SDS011;10584;50.854;12.902;2023-03-04T02:56:34;32.10;;;11.53;;
20846;SDS011;10584;50.854;12.902;2023-03-04T03:01:56;36.90;;;12.00;;
20846;SDS011;10584;50.854;12.902;2023-03-04T03:07:18;29.77;;;11.77;;
20846;SDS011;10584;50.854;12.902;2023-03-04T03:12:41;30.67;;;11.13;;
20846;SDS011;10584;50.854;12.902;2023-03-04T03:18:04;33.97;;;12.20;;
20846;SDS011;10584;50.854;12.902;2023-03-04T03:23:25;29.83;;;10.87;;
20846;SDS011;10584;50.854;12.902;2023-03-04T03:28:47;27.37;;;11.13;;
20846;SDS011;10584;50.854;12.902;2023-03-04T03:34:08;26.70;;;10.33;;
20846;SDS011;10584;50.854;12.902;2023-03-04T03:39:30;27.40;;;9.80;;
20846;SDS011;10584;50.854;12.902;2023-03-04T03:44:51;25.13;;;9.73;;
20846;SDS011;10584;50.854;12.902;2023-03-04T03:50:13;32.27;;;12.43;;
20846;SDS011;10584;50.854;12.902;2023-03-04T03:55:35;33.87;;;13.13;;
20846;SDS011;10584;50.854;12.902;2023-03-04T04:00:56;33.13;;;13.07;;
20846;SDS011;10584;50.854;12.902;2023-03-04T04:06:18;32.90;;;12.53;;
20846;SDS011;10584;50.854;12.902;2023-03-04T04:11:40;32.40;;;12.03;;
20846;SDS011;10584;50.854;12.902;2023-03-04T04:17:01;35.37;;;12.03;;
20846;SDS011;10584;50.854;12.902;2023-03-04T04:22:23;32.33;;;12.33;;
20846;SDS011;10584;50.854;12.902;2023-03-04T04:27:45;36.80;;;13.33;;
20846;SDS011;10584;50.854;12.902;2023-03-04T04:33:07;33.70;;;12.07;;
20846;SDS011;10584;50.854;12.902;2023-03-04T04:38:29;29.90;;;11.70;;
20846;SDS011;10584;50.854;12.902;2023-03-04T04:43:51;31.20;;;11.70;;
20846;SDS011;10584;50.854;12.902;2023-03-04T04:49:13;35.47;;;12.50;;
20846;SDS011;10584;50.854;12.902;2023-03-04T04:54:35;34.10;;;13.63;;
20846;SDS011;10584;50.854;12.902;2023-03-04T04:59:56;37.20;;;13.13;;
20846;SDS011;10584;50.854;12.902;2023-03-04T05:05:18;30.30;;;12.43;;
20846;SDS011;10584;50.854;12.902;2023-03-04T05:10:39;33.57;;;12.27;;
20846;SDS011;10584;50.854;12.902;2023-03-04T05:16:01;39.13;;;14.53;;
20846;SDS011;10584;50.854;12.902;2023-03-04T05:21:23;37.87;;;14.80;;
20846;SDS011;10584;50.854;12.902;2023-03-04T05:26:45;35.63;;;13.97;;
20846;SDS011;10584;50.854;12.902;2023-03-04T05:32:07;41.73;;;15.10;;
20846;SDS011;10584;50.854;12.902;2023-03-04T05:37:28;37.97;;;13.97;;
20846;SDS011;10584;50.854;12.902;2023-03-04T05:42:50;34.77;;;13.93;;
20846;SDS011;10584;50.854;12.902;2023-03-04T05:48:12;39.73;;;14.90;;
20846;SDS011;10584;50.854;12.902;2023-03-04T05:53:34;39.70;;;13.27;;
20846;SDS011;10584;50.854;12.902;2023-03-04T05:59:00;37.47;;;13.67;;
20846;SDS011;10584;50.854;12.902;2023-03-04T06:04:21;36.77;;;13.87;;
20846;SDS011;10584;50.854;12.902;2023-03-04T06:09:43;35.27;;;13.57;;
20846;SDS011;10584;50.854;12.902;2023-03-04T06:15:05;33.97;;;13.63;;
20846;SDS011;10584;50.854;12.902;2023-03-04T06:20:29;37.33;;;12.73;;
20846;SDS011;10584;50.854;12.902;2023-03-04T06:25:54;38.57;;;12.97;;
20846;SDS011;10584;50.854;12.902;2023-03-04T06:31:18;34.83;;;12.83;;
20846;SDS011;10584;50.854;12.902;2023-03-04T06:36:39;37.33;;;12.60;;
20846;SDS011;10584;50.854;12.902;2023-03-04T06:42:01;37.97;;;12.93;;
20846;SDS011;10584;50.854;12.902;2023-03-04T06:47:23;38.20;;;15.20;;
20846;SDS011;10584;50.854;12.902;2023-03-04T06:52:44;36.17;;;13.60;;
20846;SDS011;10584;50.854;12.902;2023-03-04T06:58:06;41.50;;;15.17;;
20846;SDS011;10584;50.854;12.902;2023-03-04T07:03:28;38.67;;;13.67;;
20846;SDS011;10584;50.854;12.902;2023-03-04T07:08:50;46.33;;;14.23;;
20846;SDS011;10584;50.854;12.902;2023-03-04T07:14:12;48.00;;;15.93;;
20846;SDS011;10584;50.854;12.902;2023-03-04T07:19:33;47.70;;;16.40;;
20846;SDS011;10584;50.854;12.902;2023-03-04T07:24:55;42.00;;;16.27;;
20846;SDS011;10584;50.854;12.902;2023-03-04T07:30:16;44.77;;;15.90;;
20846;SDS011;10584;50.854;12.902;2023-03-04T07:35:38;40.70;;;15.40;;
20846;SDS011;10584;50.854;12.902;2023-03-04T07:41:01;38.47;;;13.30;;
20846;SDS011;10584;50.854;12.902;2023-03-04T07:46:23;48.47;;;15.83;;
20846;SDS011;10584;50.854;12.902;2023-03-04T07:51:45;36.53;;;12.20;;
20846;SDS011;10584;50.854;12.902;2023-03-04T07:57:06;38.20;;;11.73;;
20846;SDS011;10584;50.854;12.902;2023-03-04T08:02:28;39.47;;;12.97;;
20846;SDS011;10584;50.854;12.902;2023-03-04T08:07:50;34.50;;;12.53;;
20846;SDS011;10584;50.854;12.902;2023-03-04T08:13:12;32.83;;;11.17;;
20846;SDS011;10584;50.854;12.902;2023-03-04T08:18:33;33.43;;;10.70;;
20846;SDS011;10584;50.854;12.902;2023-03-04T08:23:59;27.63;;;10.30;;
20846;SDS011;10584;50.854;12.902;2023-03-04T08:29:27;29.43;;;9.50;;
20846;SDS011;10584;50.854;12.902;2023-03-04T08:34:49;32.43;;;9.07;;
20846;SDS011;10584;50.854;12.902;2023-03-04T08:40:11;32.10;;;10.47;;
20846;SDS011;10584;50.854;12.902;2023-03-04T08:45:33;26.90;;;8.80;;
20846;SDS011;10584;50.854;12.902;2023-03-04T08:50:55;28.97;;;8.13;;
20846;SDS011;10584;50.854;12.902;2023-03-04T08:56:16;28.77;;;9.13;;
20846;SDS011;10584;50.854;12.902;2023-03-04T09:01:38;27.10;;;8.57;;
20846;SDS011;10584;50.854;12.902;2023-03-04T09:07:03;34.70;;;9.47;;
20846;SDS011;10584;50.854;12.902;2023-03-04T09:12:25;26.10;;;8.73;;
20846;SDS011;10584;50.854;12.902;2023-03-04T09:17:46;28.47;;;8.87;;
20846;SDS011;10584;50.854;12.902;2023-03-04T09:23:08;28.40;;;9.93;;
20846;SDS011;10584;50.854;12.902;2023-03-04T09:28:30;18.30;;;6.60;;
20846;SDS011;10584;50.854;12.902;2023-03-04T09:33:51;28.60;;;7.00;;
20846;SDS011;10584;50.854;12.902;2023-03-04T09:39:14;21.27;;;6.60;;
20846;SDS011;10584;50.854;12.902;2023-03-04T09:44:37;22.73;;;6.47;;
20846;SDS011;10584;50.854;12.902;2023-03-04T09:50:02;21.07;;;7.57;;
20846;SDS011;10584;50.854;12.902;2023-03-04T09:55:33;25.10;;;7.37;;
20846;SDS011;10584;50.854;12.902;2023-03-04T10:01:00;24.87;;;7.07;;
20846;SDS011;10584;50.854;12.902;2023-03-04T10:06:29;25.40;;;6.67;;
20846;SDS011;10584;50.854;12.902;2023-03-04T10:23:08;22.50;;;6.53;;
20846;SDS011;10584;50.854;12.902;2023-03-04T10:28:34;16.87;;;4.63;;
20846;SDS011;10584;50.854;12.902;2023-03-04T10:33:56;26.33;;;6.77;;
20846;SDS011;10584;50.854;12.902;2023-03-04T10:39:20;18.60;;;6.20;;
20846;SDS011;10584;50.854;12.902;2023-03-04T10:45:18;21.50;;;6.00;;
20846;SDS011;10584;50.854;12.902;2023-03-04T10:50:45;19.83;;;5.67;;
20846;SDS011;10584;50.854;12.902;2023-03-04T11:07:54;16.33;;;5.73;;
20846;SDS011;10584;50.854;12.902;2023-03-04T11:13:19;19.33;;;5.27;;
20846;SDS011;10584;50.854;12.902;2023-03-04T11:18:46;17.90;;;4.70;;
20846;SDS011;10584;50.854;12.902;2023-03-04T11:24:13;18.63;;;5.57;;
20846;SDS011;10584;50.854;12.902;2023-03-04T11:29:56;19.87;;;4.70;;
20846;SDS011;10584;50.854;12.902;2023-03-04T11:35:31;16.47;;;5.53;;
20846;SDS011;10584;50.854;12.902;2023-03-04T11:41:03;15.43;;;5.07;;
20846;SDS011;10584;50.854;12.902;2023-03-04T12:04:33;16.53;;;4.80;;
20846;SDS011;10584;50.854;12.902;2023-03-04T12:38:20;10.47;;;3.33;;
20846;SDS011;10584;50.854;12.902;2023-03-04T12:44:06;8.00;;;2.43;;
20846;SDS011;10584;50.854;12.902;2023-03-04T12:55:31;7.00;;;2.27;;
20846;SDS011;10584;50.854;12.902;2023-03-04T13:12:49;4.20;;;2.03;;
20846;SDS011;10584;50.854;12.902;2023-03-04T13:24:39;5.30;;;2.10;;
20846;SDS011;10584;50.854;12.902;2023-03-04T13:30:02;4.10;;;2.30;;
20846;SDS011;10584;50.854;12.902;2023-03-04T13:41:22;6.10;;;2.40;;
20846;SDS011;10584;50.854;12.902;2023-03-04T13:47:15;6.20;;;2.50;;
20846;SDS011;10584;50.854;12.902;2023-03-04T13:52:41;5.67;;;2.50;;
20846;SDS011;10584;50.854;12.902;2023-03-04T13:58:22;5.77;;;2.63;;
20846;SDS011;10584;50.854;12.902;2023-03-04T14:03:46;5.03;;;1.87;;
20846;SDS011;10584;50.854;12.902;2023-03-04T14:09:12;5.43;;;2.00;;
20846;SDS011;10584;50.854;12.902;2023-03-04T14:14:39;7.30;;;2.17;;
20846;SDS011;10584;50.854;12.902;2023-03-04T14:25:43;5.57;;;2.03;;
20846;SDS011;10584;50.854;12.902;2023-03-04T14:31:10;4.50;;;2.20;;
20846;SDS011;10584;50.854;12.902;2023-03-04T14:36:36;8.50;;;3.07;;
20846;SDS011;10584;50.854;12.902;2023-03-04T14:42:01;2.87;;;1.97;;
20846;SDS011;10584;50.854;12.902;2023-03-04T14:47:31;5.07;;;2.20;;
20846;SDS011;10584;50.854;12.902;2023-03-04T14:58:29;4.53;;;2.40;;
20846;SDS011;10584;50.854;12.902;2023-03-04T15:03:55;6.07;;;2.90;;
20846;SDS011;10584;50.854;12.902;2023-03-04T15:09:27;7.77;;;2.77;;
20846;SDS011;10584;50.854;12.902;2023-03-04T15:14:50;5.67;;;3.17;;
20846;SDS011;10584;50.854;12.902;2023-03-04T15:20:20;10.60;;;3.90;;
20846;SDS011;10584;50.854;12.902;2023-03-04T15:25:49;4.63;;;2.80;;
20846;SDS011;10584;50.854;12.902;2023-03-04T15:31:17;6.27;;;3.70;;
20846;SDS011;10584;50.854;12.902;2023-03-04T15:36:40;5.27;;;2.87;;
20846;SDS011;10584;50.854;12.902;2023-03-04T15:42:07;8.53;;;3.27;;
20846;SDS011;10584;50.854;12.902;2023-03-04T15:47:32;8.00;;;3.10;;
20846;SDS011;10584;50.854;12.902;2023-03-04T15:52:55;7.97;;;3.80;;
20846;SDS011;10584;50.854;12.902;2023-03-04T15:58:21;7.37;;;3.40;;
20846;SDS011;10584;50.854;12.902;2023-03-04T16:03:43;7.07;;;3.17;;
20846;SDS011;10584;50.854;12.902;2023-03-04T16:09:04;7.17;;;3.17;;
20846;SDS011;10584;50.854;12.902;2023-03-04T16:14:29;8.87;;;3.30;;
20846;SDS011;10584;50.854;12.902;2023-03-04T16:19:51;12.43;;;4.07;;
20846;SDS011;10584;50.854;12.902;2023-03-04T16:25:13;11.37;;;4.23;;
20846;SDS011;10584;50.854;12.902;2023-03-04T16:30:36;14.80;;;4.43;;
20846;SDS011;10584;50.854;12.902;2023-03-04T16:35:58;12.90;;;4.43;;
20846;SDS011;10584;50.854;12.902;2023-03-04T16:41:25;11.17;;;4.07;;
20846;SDS011;10584;50.854;12.902;2023-03-04T16:46:48;9.30;;;3.93;;
20846;SDS011;10584;50.854;12.902;2023-03-04T16:52:16;9.53;;;4.07;;
20846;SDS011;10584;50.854;12.902;2023-03-04T16:57:43;7.80;;;3.60;;
20846;SDS011;10584;50.854;12.902;2023-03-04T17:03:04;9.03;;;4.20;;
20846;SDS011;10584;50.854;12.902;2023-03-04T17:08:29;17.73;;;7.27;;
20846;SDS011;10584;50.854;12.902;2023-03-04T17:13:51;17.77;;;7.47;;
20846;SDS011;10584;50.854;12.902;2023-03-04T17:19:13;17.57;;;6.97;;
20846;SDS011;10584;50.854;12.902;2023-03-04T17:24:34;16.63;;;6.10;;
20846;SDS011;10584;50.854;12.902;2023-03-04T17:29:56;16.27;;;5.57;;
20846;SDS011;10584;50.854;12.902;2023-03-04T17:35:18;18.63;;;6.57;;
20846;SDS011;10584;50.854;12.902;2023-03-04T17:40:40;20.73;;;7.47;;
20846;SDS011;10584;50.854;12.902;2023-03-04T17:46:10;38.53;;;13.07;;
20846;SDS011;10584;50.854;12.902;2023-03-04T17:51:36;18.10;;;7.03;;
20846;SDS011;10584;50.854;12.902;2023-03-04T17:56:58;20.47;;;8.30;;
20846;SDS011;10584;50.854;12.902;2023-03-04T18:02:20;16.63;;;5.90;;
20846;SDS011;10584;50.854;12.902;2023-03-04T18:07:42;25.30;;;8.70;;
20846;SDS011;10584;50.854;12.902;2023-03-04T18:13:04;21.03;;;8.10;;
20846;SDS011;10584;50.854;12.902;2023-03-04T18:18:25;18.70;;;8.37;;
20846;SDS011;10584;50.854;12.902;2023-03-04T18:23:47;20.03;;;7.40;;
20846;SDS011;10584;50.854;12.902;2023-03-04T18:29:09;21.80;;;7.93;;
20846;SDS011;10584;50.854;12.902;2023-03-04T18:34:30;14.60;;;5.90;;
20846;SDS011;10584;50.854;12.902;2023-03-04T18:39:52;15.50;;;5.87;;
20846;SDS011;10584;50.854;12.902;2023-03-04T18:45:14;13.70;;;4.97;;
20846;SDS011;10584;50.854;12.902;2023-03-04T18:50:36;15.47;;;5.33;;
20846;SDS011;10584;50.854;12.902;2023-03-04T18:55:59;12.50;;;4.70;;
20846;SDS011;10584;50.854;12.902;2023-03-04T19:01:31;12.50;;;3.73;;
20846;SDS011;10584;50.854;12.902;2023-03-04T19:06:53;10.40;;;3.63;;
20846;SDS011;10584;50.854;12.902;2023-03-04T19:12:15;8.37;;;3.50;;
20846;SDS011;10584;50.854;12.902;2023-03-04T19:17:37;13.70;;;4.40;;
20846;SDS011;10584;50.854;12.902;2023-03-04T19:22:59;13.67;;;4.67;;
20846;SDS011;10584;50.854;12.902;2023-03-04T19:28:21;12.93;;;4.13;;
20846;SDS011;10584;50.854;12.902;2023-03-04T19:33:43;9.37;;;4.10;;
20846;SDS011;10584;50.854;12.902;2023-03-04T19:39:05;14.40;;;5.63;;
20846;SDS011;10584;50.854;12.902;2023-03-04T19:44:28;10.23;;;4.43;;
20846;SDS011;10584;50.854;12.902;2023-03-04T19:49:49;11.40;;;4.43;;
20846;SDS011;10584;50.854;12.902;2023-03-04T19:55:11;10.30;;;3.50;;
20846;SDS011;10584;50.854;12.902;2023-03-04T20:00:34;10.83;;;2.53;;
20846;SDS011;10584;50.854;12.902;2023-03-04T20:06:06;14.13;;;3.03;;
20846;SDS011;10584;50.854;12.902;2023-03-04T20:11:29;11.83;;;3.37;;
20846;SDS011;10584;50.854;12.902;2023-03-04T20:16:50;18.53;;;4.37;;
20846;SDS011;10584;50.854;12.902;2023-03-04T20:22:12;10.30;;;3.23;;
20846;SDS011;10584;50.854;12.902;2023-03-04T20:27:34;13.43;;;2.90;;
20846;SDS011;10584;50.854;12.902;2023-03-04T20:32:56;10.97;;;2.73;;
20846;SDS011;10584;50.854;12.902;2023-03-04T20:38:17;21.10;;;3.10;;
20846;SDS011;10584;50.854;12.902;2023-03-04T20:43:39;25.77;;;5.57;;
20846;SDS011;10584;50.854;12.902;2023-03-04T20:49:02;10.30;;;3.40;;
20846;SDS011;10584;50.854;12.902;2023-03-04T20:54:25;13.53;;;3.10;;
20846;SDS011;10584;50.854;12.902;2023-03-04T20:59:47;10.93;;;3.37;;
20846;SDS011;10584;50.854;12.902;2023-03-04T21:05:09;24.67;;;9.63;;
20846;SDS011;10584;50.854;12.902;2023-03-04T21:10:33;17.00;;;5.13;;
20846;SDS011;10584;50.854;12.902;2023-03-04T21:15:56;15.30;;;4.10;;
20846;SDS011;10584;50.854;12.902;2023-03-04T21:21:19;8.40;;;3.13;;
20846;SDS011;10584;50.854;12.902;2023-03-04T21:26:43;10.20;;;2.73;;
20846;SDS011;10584;50.854;12.902;2023-03-04T21:37:44;14.23;;;4.63;;
20846;SDS011;10584;50.854;12.902;2023-03-04T21:43:05;16.07;;;2.93;;
20846;SDS011;10584;50.854;12.902;2023-03-04T21:48:27;20.13;;;3.00;;
20846;SDS011;10584;50.854;12.902;2023-03-04T21:53:49;21.03;;;3.00;;
20846;SDS011;10584;50.854;12.902;2023-03-04T21:59:11;12.50;;;2.53;;
20846;SDS011;10584;50.854;12.902;2023-03-04T22:04:33;9.27;;;3.17;;
20846;SDS011;10584;50.854;12.902;2023-03-04T22:09:55;16.80;;;4.03;;
20846;SDS011;10584;50.854;12.902;2023-03-04T22:15:19;16.27;;;3.47;;
20846;SDS011;10584;50.854;12.902;2023-03-04T22:20:42;13.80;;;3.00;;
20846;SDS011;10584;50.854;12.902;2023-03-04T22:26:10;16.77;;;4.23;;
20846;SDS011;10584;50.854;12.902;2023-03-04T22:31:34;16.20;;;3.50;;
20846;SDS011;10584;50.854;12.902;2023-03-04T22:36:57;12.53;;;3.83;;
20846;SDS011;10584;50.854;12.902;2023-03-04T22:42:19;15.27;;;4.10;;
20846;SDS011;10584;50.854;12.902;2023-03-04T22:47:51;17.13;;;4.20;;
20846;SDS011;10584;50.854;12.902;2023-03-04T22:53:13;18.93;;;3.97;;
20846;SDS011;10584;50.854;12.902;2023-03-04T22:58:35;17.83;;;4.60;;
20846;SDS011;10584;50.854;12.902;2023-03-04T23:03:56;27.13;;;4.97;;
20846;SDS011;10584;50.854;12.902;2023-03-04T23:09:18;19.57;;;5.00;;
20846;SDS011;10584;50.854;12.902;2023-03-04T23:14:39;16.47;;;4.63;;
20846;SDS011;10584;50.854;12.902;2023-03-04T23:20:04;14.70;;;4.60;;
20846;SDS011;10584;50.854;12.902;2023-03-04T23:25:26;24.80;;;4.27;;
20846;SDS011;10584;50.854;12.902;2023-03-04T23:30:48;13.03;;;4.43;;
20846;SDS011;10584;50.854;12.902;2023-03-04T23:36:10;21.90;;;4.30;;
20846;SDS011;10584;50.854;12.902;2023-03-04T23:41:34;15.80;;;4.13;;
20846;SDS011;10584;50.854;12.902;2023-03-04T23:46:56;12.53;;;4.20;;
20846;SDS011;10584;50.854;12.902;2023-03-04T23:52:17;14.03;;;3.63;;
20846;SDS011;10584;50.854;12.902;2023-03-04T23:57:39;12.10;;;3.20;;
